createdAt,value
2022-07-29T00:02:15.716Z,72.53
2022-07-29T00:04:46.808Z,72.58
2022-07-29T00:07:24.438Z,72.63
2022-07-29T00:09:55.511Z,73.18
2022-07-29T00:12:26.764Z,73.13
2022-07-29T00:14:56.126Z,73.57
2022-07-29T00:17:26.862Z,74.16
2022-07-29T00:20:01.157Z,74.48
2022-07-29T00:22:32.435Z,74.45
2022-07-29T00:25:01.551Z,74.90
2022-07-29T00:27:28.470Z,74.87
2022-07-29T00:29:56.790Z,74.82
2022-07-29T00:32:23.991Z,74.79
2022-07-29T00:35:19.503Z,74.95
2022-07-29T00:37:52.499Z,75.58
2022-07-29T00:40:23.578Z,76.21
2022-07-29T00:42:54.170Z,76.25
2022-07-29T00:45:21.412Z,76.38
2022-07-29T00:47:55.972Z,76.72
2022-07-29T00:50:25.001Z,76.62
2022-07-29T00:52:55.907Z,76.92
2022-07-29T00:55:28.361Z,76.80
2022-07-29T00:57:58.229Z,76.89
2022-07-29T01:00:27.656Z,77.24
2022-07-29T01:02:56.088Z,77.18
2022-07-29T01:05:50.429Z,77.21
2022-07-29T01:08:17.299Z,77.31
2022-07-29T01:10:45.514Z,77.48
2022-07-29T01:13:20.136Z,77.28
2022-07-29T01:16:04.319Z,77.66
2022-07-29T01:18:37.343Z,77.21
2022-07-29T01:21:04.991Z,76.93
2022-07-29T01:24:04.785Z,77.29
2022-07-29T01:26:48.141Z,77.44
2022-07-29T01:29:21.946Z,76.46
2022-07-29T01:32:00.971Z,77.49
2022-07-29T01:34:48.839Z,77.21
2022-07-29T01:37:30.891Z,77.66
2022-07-29T01:40:01.653Z,77.39
2022-07-29T01:42:43.873Z,76.70
2022-07-29T01:45:18.159Z,76.89
2022-07-29T01:48:02.596Z,77.01
2022-07-29T01:50:38.524Z,77.08
2022-07-29T01:53:10.517Z,77.25
2022-07-29T01:55:41.681Z,76.97
2022-07-29T01:58:10.455Z,77.42
2022-07-29T02:00:40.709Z,77.59
2022-07-29T02:03:13.963Z,77.08
2022-07-29T02:05:45.930Z,77.71
2022-07-29T02:08:16.211Z,77.72
2022-07-29T02:10:51.343Z,77.70
2022-07-29T02:13:22.002Z,77.39
2022-07-29T02:16:00.074Z,77.28
2022-07-29T02:18:29.503Z,77.37
2022-07-29T02:20:59.654Z,77.40
2022-07-29T02:23:27.816Z,77.84
2022-07-29T02:26:01.959Z,77.87
2022-07-29T02:28:33.588Z,78.60
2022-07-29T02:31:03.654Z,78.46
2022-07-29T02:33:35.246Z,78.67
2022-07-29T02:36:04.498Z,78.38
2022-07-29T02:38:51.688Z,78.98
2022-07-29T02:41:24.696Z,79.11
2022-07-29T02:44:07.603Z,78.88
2022-07-29T02:46:47.846Z,79.60
2022-07-29T02:49:21.455Z,79.98
2022-07-29T02:51:58.719Z,79.90
2022-07-29T02:55:02.506Z,79.20
2022-07-29T02:57:54.603Z,79.22
2022-07-29T03:00:25.938Z,79.55
2022-07-29T03:02:58.648Z,80.01
2022-07-29T03:05:27.516Z,80.15
2022-07-29T03:07:59.951Z,80.06
2022-07-29T03:10:33.583Z,80.75
2022-07-29T03:13:06.262Z,80.53
2022-07-29T03:15:35.017Z,80.95
2022-07-29T03:18:04.205Z,81.38
2022-07-29T03:20:31.633Z,81.79
2022-07-29T03:23:04.548Z,81.73
2022-07-29T03:25:33.229Z,81.32
2022-07-29T03:28:00.303Z,80.87
2022-07-29T03:30:27.528Z,81.04
2022-07-29T03:32:59.774Z,81.12
2022-07-29T03:35:28.434Z,81.49
2022-07-29T03:37:59.801Z,81.83
2022-07-29T03:40:41.633Z,81.29
2022-07-29T03:43:11.020Z,81.89
2022-07-29T03:45:39.273Z,81.84
2022-07-29T03:48:14.218Z,82.18
2022-07-29T03:50:41.531Z,81.82
2022-07-29T03:53:11.837Z,81.95
2022-07-29T03:55:47.451Z,82.67
2022-07-29T03:58:17.206Z,83.03
2022-07-29T04:00:49.753Z,83.69
2022-07-29T04:03:23.286Z,84.05
2022-07-29T04:06:03.224Z,84.42
2022-07-29T04:08:30.244Z,84.81
2022-07-29T04:11:05.244Z,84.08
2022-07-29T04:13:36.634Z,84.54
2022-07-29T04:16:11.224Z,85.04
2022-07-29T04:18:43.621Z,85.04
2022-07-29T04:21:12.877Z,83.44
2022-07-29T04:23:56.240Z,81.76
2022-07-29T04:26:26.819Z,80.63
2022-07-29T04:28:54.137Z,80.86
2022-07-29T04:31:27.096Z,80.82
2022-07-29T04:33:56.255Z,81.94
2022-07-29T04:36:29.260Z,81.75
2022-07-29T04:39:08.064Z,80.36
2022-07-29T04:41:43.724Z,80.37
2022-07-29T04:44:14.843Z,80.75
2022-07-29T04:46:47.635Z,80.68
2022-07-29T04:49:17.335Z,80.50
2022-07-29T04:51:44.634Z,80.45
2022-07-29T04:54:15.527Z,80.05
2022-07-29T04:56:50.824Z,79.97
2022-07-29T04:59:50.304Z,78.95
2022-07-29T05:02:27.841Z,77.84
2022-07-29T05:05:02.872Z,76.40
2022-07-29T05:07:31.731Z,75.46
2022-07-29T05:09:58.778Z,75.13
2022-07-29T05:12:27.218Z,75.08
2022-07-29T05:15:02.410Z,74.93
2022-07-29T05:17:33.861Z,75.42
2022-07-29T05:20:11.010Z,75.43
2022-07-29T05:22:40.157Z,75.66
2022-07-29T05:25:18.632Z,76.06
2022-07-29T05:27:46.668Z,75.98
2022-07-29T05:30:27.400Z,75.86
2022-07-29T05:33:03.184Z,75.55
2022-07-29T05:35:30.406Z,74.50
2022-07-29T05:37:58.922Z,74.69
2022-07-29T05:40:34.531Z,72.82
2022-07-29T05:43:13.473Z,71.02
2022-07-29T05:46:17.079Z,69.58
2022-07-29T05:48:48.647Z,68.62
2022-07-29T05:51:15.626Z,68.26
2022-07-29T05:53:46.362Z,68.57
2022-07-29T05:56:25.640Z,68.24
2022-07-29T05:58:54.480Z,68.31
2022-07-29T06:01:21.532Z,68.62
2022-07-29T06:03:50.456Z,69.20
2022-07-29T06:06:19.555Z,67.70
2022-07-29T06:08:50.420Z,66.40
2022-07-29T06:11:17.810Z,65.78
2022-07-29T06:13:53.684Z,64.91
2022-07-29T06:16:35.080Z,61.25
2022-07-29T06:19:02.249Z,60.55
2022-07-29T06:21:34.649Z,60.17
2022-07-29T06:24:17.062Z,60.41
2022-07-29T06:26:52.699Z,61.29
2022-07-29T06:29:25.187Z,60.13
2022-07-29T06:31:59.334Z,58.92
2022-07-29T06:34:33.571Z,58.72
2022-07-29T06:37:15.561Z,58.45
2022-07-29T06:40:10.386Z,58.89
2022-07-29T06:42:43.937Z,58.24
2022-07-29T06:45:16.188Z,58.11
2022-07-29T06:48:29.440Z,57.53
2022-07-29T06:50:59.981Z,58.25
2022-07-29T06:53:28.105Z,57.77
2022-07-29T06:56:00.035Z,58.31
2022-07-29T06:58:33.067Z,57.97
2022-07-29T07:01:05.488Z,58.97
2022-07-29T07:03:33.435Z,58.24
2022-07-29T07:06:01.363Z,57.68
2022-07-29T07:08:30.093Z,57.79
2022-07-29T07:10:57.951Z,57.94
2022-07-29T07:13:38.946Z,57.41
2022-07-29T07:16:05.974Z,57.28
2022-07-29T07:18:32.984Z,56.95
2022-07-29T07:21:03.416Z,56.41
2022-07-29T07:23:30.275Z,57.25
2022-07-29T07:25:57.134Z,57.78
2022-07-29T07:28:26.343Z,57.64
2022-07-29T07:30:57.512Z,58.26
2022-07-29T07:33:31.069Z,58.34
2022-07-29T07:36:06.710Z,58.51
2022-07-29T07:38:52.023Z,58.90
2022-07-29T07:41:32.471Z,59.18
2022-07-29T07:44:16.119Z,59.60
2022-07-29T07:46:46.040Z,59.22
2022-07-29T07:49:23.433Z,58.98
2022-07-29T07:51:51.195Z,59.17
2022-07-29T07:54:20.778Z,59.25
2022-07-29T07:56:55.195Z,59.74
2022-07-29T07:59:23.025Z,58.90
2022-07-29T08:01:55.630Z,59.35
2022-07-29T08:04:28.165Z,57.26
2022-07-29T08:06:58.232Z,58.67
2022-07-29T08:09:29.926Z,58.49
2022-07-29T08:12:00.069Z,57.66
2022-07-29T08:14:33.210Z,58.22
2022-07-29T08:17:02.073Z,58.54
2022-07-29T08:19:32.772Z,58.46
2022-07-29T08:22:00.726Z,57.36
2022-07-29T08:24:44.520Z,58.13
2022-07-29T08:27:33.337Z,57.28
2022-07-29T08:30:00.164Z,58.43
2022-07-29T08:35:45.190Z,58.38
2022-07-29T08:38:15.752Z,57.40
2022-07-29T08:40:42.666Z,57.34
2022-07-29T08:43:15.978Z,57.78
2022-07-29T08:46:01.915Z,58.02
2022-07-29T08:48:32.196Z,57.74
2022-07-29T08:51:01.635Z,58.36
2022-07-29T08:53:32.030Z,58.15
2022-07-29T08:56:02.150Z,57.39
2022-07-29T08:58:37.030Z,57.61
2022-07-29T09:01:06.846Z,56.71
2022-07-29T09:03:38.157Z,58.04
2022-07-29T09:06:06.370Z,57.49
2022-07-29T09:08:34.685Z,57.18
2022-07-29T09:11:09.187Z,58.34
2022-07-29T09:13:37.296Z,55.81
2022-07-29T09:16:09.368Z,55.10
2022-07-29T09:18:46.457Z,56.70
2022-07-29T09:21:40.289Z,57.31
2022-07-29T09:24:21.263Z,57.82
2022-07-29T09:26:54.209Z,57.71
2022-07-29T09:29:27.631Z,57.22
2022-07-29T09:31:56.719Z,57.90
2022-07-29T09:34:33.206Z,57.62
2022-07-29T09:37:03.042Z,57.76
2022-07-29T09:39:38.209Z,58.85
2022-07-29T09:42:10.812Z,58.62
2022-07-29T09:44:52.689Z,58.76
2022-07-29T09:47:22.977Z,58.14
2022-07-29T09:49:55.535Z,58.32
2022-07-29T09:52:22.831Z,58.57
2022-07-29T09:54:55.479Z,55.97
2022-07-29T09:57:30.863Z,56.96
2022-07-29T10:00:20.022Z,57.88
2022-07-29T10:02:52.938Z,58.18
2022-07-29T10:05:36.110Z,55.19
2022-07-29T10:08:04.813Z,52.88
2022-07-29T10:10:37.629Z,50.39
2022-07-29T10:13:35.539Z,50.08
2022-07-29T10:16:03.752Z,49.54
2022-07-29T10:18:36.653Z,48.34
2022-07-29T10:21:07.759Z,48.81
2022-07-29T10:23:46.193Z,53.77
2022-07-29T10:26:14.175Z,49.07
2022-07-29T10:28:41.302Z,49.30
2022-07-29T10:31:24.193Z,48.64
2022-07-29T10:34:11.416Z,46.84
2022-07-29T10:37:25.877Z,45.28
2022-07-29T10:40:38.293Z,45.88
2022-07-29T10:43:31.905Z,50.13
2022-07-29T10:46:07.330Z,51.44
2022-07-29T10:49:15.449Z,48.52
2022-07-29T10:52:05.817Z,47.89
2022-07-29T10:54:44.335Z,49.60
2022-07-29T10:57:53.185Z,50.45
2022-07-29T11:00:35.874Z,54.13
2022-07-29T11:03:11.710Z,56.57
2022-07-29T11:05:59.888Z,57.52
2022-07-29T11:08:32.402Z,54.49
2022-07-29T11:11:22.584Z,53.95
2022-07-29T11:14:05.516Z,52.99
2022-07-29T11:17:06.490Z,49.47
2022-07-29T11:19:48.014Z,46.27
2022-07-29T11:22:45.946Z,44.62
2022-07-29T11:25:42.770Z,44.50
2022-07-29T11:28:22.905Z,43.49
2022-07-29T11:31:12.021Z,40.00
2022-07-29T11:33:56.386Z,39.60
2022-07-29T11:36:28.031Z,38.75
2022-07-29T11:39:36.848Z,39.26
2022-07-29T11:42:32.164Z,42.96
2022-07-29T11:45:43.923Z,41.15
2022-07-29T11:48:27.585Z,36.97
2022-07-29T11:50:48.604Z,37.13
2022-07-29T11:56:20.107Z,36.12
2022-07-29T11:59:08.660Z,37.22
2022-07-29T12:02:02.433Z,37.28
2022-07-29T12:04:59.239Z,37.36
2022-07-29T12:07:38.952Z,36.81
2022-07-29T12:10:19.752Z,37.99
2022-07-29T12:12:57.620Z,39.74
2022-07-29T12:15:45.996Z,41.25
2022-07-29T12:18:37.950Z,42.14
2022-07-29T12:21:12.487Z,40.35
2022-07-29T12:24:05.437Z,41.13
2022-07-29T12:26:35.975Z,38.70
2022-07-29T12:29:14.087Z,39.05
2022-07-29T12:31:45.844Z,38.83
2022-07-29T12:34:16.893Z,35.91
2022-07-29T12:36:54.568Z,34.53
2022-07-29T12:39:35.103Z,34.89
2022-07-29T12:42:18.619Z,37.82
2022-07-29T12:45:06.739Z,37.06
2022-07-29T12:47:54.630Z,41.86
2022-07-29T12:50:26.393Z,40.43
2022-07-29T12:52:53.501Z,39.53
2022-07-29T12:55:46.504Z,42.23
2022-07-29T12:58:30.830Z,39.01
2022-07-29T13:01:05.233Z,34.73
2022-07-29T13:04:06.746Z,35.75
2022-07-29T13:07:19.883Z,37.06
2022-07-29T13:10:52.555Z,37.55
2022-07-29T13:13:33.408Z,36.89
2022-07-29T13:16:23.020Z,36.10
2022-07-29T13:19:12.200Z,35.28
2022-07-29T13:21:40.363Z,35.01
2022-07-29T13:24:36.382Z,35.33
2022-07-29T13:27:18.864Z,37.75
2022-07-29T13:29:47.692Z,38.35
2022-07-29T13:32:41.997Z,37.56
2022-07-29T13:35:33.367Z,36.38
2022-07-29T13:38:14.744Z,37.62
2022-07-29T13:40:49.174Z,39.01
2022-07-29T13:43:44.076Z,40.23
2022-07-29T13:46:20.957Z,38.30
2022-07-29T13:48:54.789Z,38.34
2022-07-29T13:51:33.657Z,38.18
2022-07-29T13:54:07.679Z,35.92
2022-07-29T13:56:44.125Z,34.54
2022-07-29T13:59:26.907Z,33.55
2022-07-29T14:02:01.623Z,34.60
2022-07-29T14:04:33.165Z,35.91
2022-07-29T14:07:03.780Z,34.16
2022-07-29T14:09:56.872Z,35.44
2022-07-29T14:12:36.787Z,34.72
2022-07-29T14:15:10.651Z,34.20
2022-07-29T14:17:48.199Z,35.13
2022-07-29T14:20:21.380Z,35.28
2022-07-29T14:22:54.137Z,33.99
2022-07-29T14:25:27.680Z,35.43
2022-07-29T14:28:01.787Z,36.57
2022-07-29T14:30:44.726Z,37.05
2022-07-29T14:33:20.692Z,35.92
2022-07-29T14:35:52.548Z,36.98
2022-07-29T14:38:22.576Z,37.03
2022-07-29T14:40:54.609Z,37.47
2022-07-29T14:43:36.716Z,37.25
2022-07-29T14:46:12.404Z,37.20
2022-07-29T14:48:55.218Z,35.59
2022-07-29T14:51:32.434Z,35.32
2022-07-29T14:54:07.192Z,35.08
2022-07-29T14:56:37.854Z,35.37
2022-07-29T14:59:30.659Z,35.09
2022-07-29T15:02:03.643Z,36.46
2022-07-29T15:04:32.579Z,37.48
2022-07-29T15:07:15.119Z,37.21
2022-07-29T15:09:51.323Z,36.89
2022-07-29T15:12:26.031Z,37.72
2022-07-29T15:14:55.096Z,37.84
2022-07-29T15:17:24.619Z,36.92
2022-07-29T15:19:54.763Z,36.62
2022-07-29T15:22:37.995Z,37.17
2022-07-29T15:25:13.602Z,37.65
2022-07-29T15:27:48.916Z,39.56
2022-07-29T15:30:33.987Z,37.89
2022-07-29T15:33:06.553Z,39.00
2022-07-29T15:35:41.936Z,39.61
2022-07-29T15:38:11.045Z,37.52
2022-07-29T15:40:48.964Z,38.28
2022-07-29T15:43:28.811Z,36.80
2022-07-29T15:46:20.046Z,36.31
2022-07-29T15:49:00.482Z,36.08
2022-07-29T15:51:44.906Z,37.67
2022-07-29T15:54:15.661Z,39.73
2022-07-29T15:57:00.920Z,40.18
2022-07-29T15:59:37.322Z,40.13
2022-07-29T16:02:33.553Z,39.44
2022-07-29T16:05:09.506Z,38.47
2022-07-29T16:07:56.657Z,38.75
2022-07-29T16:10:39.587Z,37.49
2022-07-29T16:13:26.034Z,39.32
2022-07-29T16:16:02.036Z,38.61
2022-07-29T16:18:36.265Z,36.85
2022-07-29T16:21:32.117Z,35.62
2022-07-29T16:24:09.965Z,36.74
2022-07-29T16:26:41.403Z,38.25
2022-07-29T16:29:14.240Z,38.18
2022-07-29T16:31:45.751Z,38.93
2022-07-29T16:34:15.113Z,38.37
2022-07-29T16:37:15.399Z,39.00
2022-07-29T16:39:48.970Z,40.12
2022-07-29T16:42:37.087Z,40.13
2022-07-29T16:45:11.694Z,40.35
2022-07-29T16:47:43.351Z,40.27
2022-07-29T16:50:11.038Z,40.75
2022-07-29T16:52:53.028Z,40.40
2022-07-29T16:55:28.332Z,41.81
2022-07-29T16:57:58.908Z,42.60
2022-07-29T17:00:31.734Z,42.95
2022-07-29T17:03:04.681Z,42.51
2022-07-29T17:05:52.732Z,42.43
2022-07-29T17:08:27.971Z,42.65
2022-07-29T17:11:05.036Z,41.49
2022-07-29T17:13:34.907Z,41.49
2022-07-29T17:16:04.846Z,42.12
2022-07-29T17:18:59.199Z,42.59
2022-07-29T17:21:36.400Z,42.70
2022-07-29T17:24:16.941Z,43.31
2022-07-29T17:26:50.344Z,43.08
2022-07-29T17:29:20.745Z,43.13
2022-07-29T17:31:47.827Z,44.04
2022-07-29T17:34:18.926Z,44.56
2022-07-29T17:36:48.492Z,42.28
2022-07-29T17:39:17.847Z,43.75
2022-07-29T17:41:48.220Z,43.76
2022-07-29T17:44:15.518Z,44.57
2022-07-29T17:46:42.704Z,45.40
2022-07-29T17:49:10.883Z,45.35
2022-07-29T17:51:43.430Z,46.59
2022-07-29T17:54:10.945Z,47.07
2022-07-29T17:56:38.996Z,46.86
2022-07-29T17:59:09.183Z,47.46
2022-07-29T18:01:39.130Z,47.86
2022-07-29T18:04:06.205Z,48.58
2022-07-29T18:06:40.717Z,49.48
2022-07-29T18:09:08.182Z,48.60
2022-07-29T18:11:36.566Z,48.77
2022-07-29T18:14:11.256Z,48.29
2022-07-29T18:16:38.658Z,48.03
2022-07-29T18:19:08.825Z,48.05
2022-07-29T18:21:51.455Z,49.63
2022-07-29T18:24:30.293Z,50.32
2022-07-29T18:27:07.986Z,50.89
2022-07-29T18:29:36.181Z,50.73
2022-07-29T18:32:05.336Z,51.04
2022-07-29T18:34:34.026Z,51.17
2022-07-29T18:37:10.933Z,51.48
2022-07-29T18:39:40.477Z,52.50
2022-07-29T18:42:07.989Z,51.73
2022-07-29T18:44:43.576Z,50.80
2022-07-29T18:47:17.017Z,51.75
2022-07-29T18:49:44.370Z,51.66
2022-07-29T18:52:12.443Z,51.79
2022-07-29T18:54:48.089Z,52.08
2022-07-29T18:57:53.703Z,52.31
2022-07-29T19:00:15.258Z,52.04
2022-07-29T19:02:45.659Z,53.17
2022-07-29T19:05:18.397Z,53.72
2022-07-29T19:07:45.310Z,52.62
2022-07-29T19:10:12.626Z,51.72
2022-07-29T19:12:49.765Z,52.63
2022-07-29T19:15:19.976Z,52.93
2022-07-29T19:17:46.954Z,53.33
2022-07-29T19:20:14.470Z,54.29
2022-07-29T19:22:51.207Z,53.79
2022-07-29T19:25:19.628Z,54.01
2022-07-29T19:27:47.317Z,53.01
2022-07-29T19:30:23.161Z,53.00
2022-07-29T19:32:51.997Z,52.83
2022-07-29T19:35:25.687Z,53.27
2022-07-29T19:37:57.387Z,52.65
2022-07-29T19:40:30.823Z,52.14
2022-07-29T19:43:00.155Z,52.96
2022-07-29T19:45:31.470Z,52.25
2022-07-29T19:48:01.666Z,52.74
2022-07-29T19:50:36.499Z,52.56
2022-07-29T19:53:05.289Z,52.06
2022-07-29T19:55:32.230Z,51.47
2022-07-29T19:58:06.136Z,52.10
2022-07-29T20:00:38.544Z,51.66
2022-07-29T20:03:12.143Z,51.70
2022-07-29T20:05:51.862Z,51.47
2022-07-29T20:08:24.467Z,52.11
2022-07-29T20:10:57.718Z,52.99
2022-07-29T20:13:27.009Z,52.61
2022-07-29T20:15:53.991Z,52.53
2022-07-29T20:18:30.461Z,51.76
2022-07-29T20:20:57.713Z,52.16
2022-07-29T20:23:33.446Z,50.72
2022-07-29T20:26:19.483Z,50.64
2022-07-29T20:28:54.160Z,50.88
2022-07-29T20:31:30.003Z,50.03
2022-07-29T20:33:59.114Z,49.89
2022-07-29T20:36:28.814Z,49.76
2022-07-29T20:39:06.673Z,49.70
2022-07-29T20:41:34.033Z,50.50
2022-07-29T20:44:04.818Z,50.19
2022-07-29T20:46:32.104Z,49.67
2022-07-29T20:49:10.137Z,49.36
2022-07-29T20:51:49.266Z,49.58
2022-07-29T20:54:23.618Z,50.30
2022-07-29T20:56:57.009Z,49.65
2022-07-29T20:59:32.324Z,50.00
2022-07-29T21:02:07.021Z,50.38
2022-07-29T21:04:53.333Z,50.35
2022-07-29T21:07:42.471Z,50.79
2022-07-29T21:10:41.408Z,51.10
2022-07-29T21:13:11.558Z,51.32
2022-07-29T21:15:54.724Z,51.68
2022-07-29T21:18:51.898Z,51.50
2022-07-29T21:24:28.419Z,52.29
2022-07-29T21:27:23.067Z,52.65
2022-07-29T21:29:53.564Z,53.52
2022-07-29T21:32:29.949Z,54.10
2022-07-29T21:34:59.742Z,53.91
2022-07-29T21:37:56.646Z,54.41
2022-07-29T21:40:39.840Z,54.94
2022-07-29T21:43:34.188Z,55.10
2022-07-29T21:46:18.459Z,55.55
2022-07-29T21:48:53.306Z,55.60
2022-07-29T21:51:30.354Z,56.00
2022-07-29T21:54:15.742Z,56.54
2022-07-29T21:57:09.405Z,57.12
2022-07-29T21:59:36.263Z,56.86
2022-07-29T22:02:03.497Z,57.20
2022-07-29T22:04:30.951Z,58.02
2022-07-29T22:06:58.518Z,57.58
2022-07-29T22:09:25.728Z,58.00
2022-07-29T22:11:52.500Z,57.38
2022-07-29T22:14:19.393Z,57.99
2022-07-29T22:16:46.786Z,58.53
2022-07-29T22:19:14.176Z,57.54
2022-07-29T22:21:41.792Z,57.55
2022-07-29T22:24:10.319Z,58.15
2022-07-29T22:26:38.163Z,59.42
2022-07-29T22:29:05.058Z,59.34
2022-07-29T22:31:31.819Z,59.01
2022-07-29T22:33:58.567Z,59.03
2022-07-29T22:36:26.257Z,60.47
2022-07-29T22:38:52.922Z,61.51
2022-07-29T22:41:19.699Z,61.07
2022-07-29T22:43:46.391Z,61.30
2022-07-29T22:46:13.138Z,62.50
2022-07-29T22:48:39.925Z,61.50
2022-07-29T22:51:06.778Z,61.14
2022-07-29T22:53:33.460Z,62.09
2022-07-29T22:56:00.239Z,61.62
2022-07-29T22:58:26.925Z,62.05
2022-07-29T23:00:53.913Z,61.58
2022-07-29T23:03:21.261Z,63.27
2022-07-29T23:05:48.168Z,63.41
2022-07-29T23:08:14.983Z,63.23
2022-07-29T23:10:41.722Z,63.68
2022-07-29T23:13:08.640Z,64.39
2022-07-29T23:15:35.285Z,64.63
2022-07-29T23:18:02.063Z,64.81
2022-07-29T23:20:28.900Z,65.33
2022-07-29T23:22:55.616Z,64.53
2022-07-29T23:25:22.447Z,64.47
2022-07-29T23:27:49.114Z,65.38
2022-07-29T23:30:15.843Z,65.33
2022-07-29T23:32:42.504Z,64.00
2022-07-29T23:35:09.608Z,65.67
2022-07-29T23:37:36.638Z,65.68
2022-07-29T23:40:04.707Z,63.59
2022-07-29T23:42:31.551Z,61.76
2022-07-29T23:44:58.283Z,62.35
2022-07-29T23:47:24.965Z,63.44
2022-07-29T23:49:51.718Z,63.48
2022-07-29T23:52:18.644Z,64.00
2022-07-29T23:54:45.407Z,64.15
2022-07-29T23:57:12.293Z,65.00
2022-07-29T23:59:38.968Z,65.30
